Time;durP1;ratioP1;P1;durP2;ratioP2;P2;SDS_P1;SDS_P2;PMS_P1;PMS_P2;Temp;Humidity;BMP_temperature;BMP_pressure;BME280_temperature;BME280_humidity;BME280_pressure;Samples;Min_cycle;Max_cycle;Signal;HPM_P1;HPM_P2
2022/03/01 00:01:40;;;;;;;3.03;2.70;;;;;;;;;;4995037;28;20422;-69
2022/03/01 00:04:08;;;;;;;4.68;3.08;;;;;;;;;;4995345;28;20117;-75
2022/03/01 00:06:36;;;;;;;4.82;3.58;;;;;;;;;;4995488;28;20490;-71
2022/03/01 00:09:04;;;;;;;5.20;3.50;;;;;;;;;;4995490;28;20042;-73
2022/03/01 00:11:32;;;;;;;9.30;4.45;;;;;;;;;;4996515;28;20046;-69
2022/03/01 00:14:00;;;;;;;7.57;4.57;;;;;;;;;;4995073;28;20082;-73
2022/03/01 00:16:30;;;;;;;9.15;5.28;;;;;;;;;;4995274;28;20096;-72
2022/03/01 00:18:58;;;;;;;9.40;5.40;;;;;;;;;;4995330;28;20498;-72
2022/03/01 00:21:26;;;;;;;6.72;5.43;;;;;;;;;;4994880;28;20193;-71
2022/03/01 00:23:54;;;;;;;9.13;5.15;;;;;;;;;;4996432;28;20060;-69
2022/03/01 00:26:21;;;;;;;6.93;5.47;;;;;;;;;;4996107;28;20501;-75
2022/03/01 00:28:50;;;;;;;7.20;5.35;;;;;;;;;;4996438;28;20038;-73
2022/03/01 00:31:17;;;;;;;7.65;5.80;;;;;;;;;;4996120;28;20525;-71
2022/03/01 00:33:45;;;;;;;7.93;5.75;;;;;;;;;;4996229;28;20046;-71
2022/03/01 00:36:12;;;;;;;8.35;5.53;;;;;;;;;;4994846;28;20502;-73
2022/03/01 00:38:40;;;;;;;8.70;6.00;;;;;;;;;;4994884;28;20370;-71
2022/03/01 00:41:07;;;;;;;9.00;5.93;;;;;;;;;;4995376;28;20427;-69
2022/03/01 00:43:35;;;;;;;10.73;6.38;;;;;;;;;;4971169;28;20047;-69
2022/03/01 00:46:03;;;;;;;8.80;6.45;;;;;;;;;;4975014;28;20093;-75
2022/03/01 00:48:30;;;;;;;8.73;6.20;;;;;;;;;;4974227;28;20039;-75
2022/03/01 00:50:58;;;;;;;10.40;6.15;;;;;;;;;;4976299;28;20046;-75
2022/03/01 00:53:25;;;;;;;8.95;6.95;;;;;;;;;;4975138;28;20477;-72
2022/03/01 00:55:53;;;;;;;10.43;7.65;;;;;;;;;;4976600;28;20105;-69
2022/03/01 00:58:21;;;;;;;9.73;6.82;;;;;;;;;;4974835;28;20134;-71
2022/03/01 01:00:48;;;;;;;9.77;7.30;;;;;;;;;;4974877;28;20046;-75
2022/03/01 01:03:16;;;;;;;10.10;7.20;;;;;;;;;;4976026;28;20042;-70
2022/03/01 01:05:43;;;;;;;13.90;7.72;;;;;;;;;;4976093;28;20117;-70
2022/03/01 01:08:11;;;;;;;10.43;7.03;;;;;;;;;;4976349;28;20043;-69
2022/03/01 01:10:38;;;;;;;8.07;6.70;;;;;;;;;;4974511;28;20050;-73
2022/03/01 01:13:06;;;;;;;10.90;6.55;;;;;;;;;;4975700;28;20055;-69
2022/03/01 01:15:34;;;;;;;12.32;7.32;;;;;;;;;;4976370;28;20043;-71
2022/03/01 01:18:01;;;;;;;10.77;7.50;;;;;;;;;;4975607;28;20126;-69
2022/03/01 01:20:28;;;;;;;12.13;6.60;;;;;;;;;;4975756;28;20049;-69
2022/03/01 01:22:56;;;;;;;11.63;6.68;;;;;;;;;;4975729;28;20133;-69
2022/03/01 01:25:24;;;;;;;12.57;7.03;;;;;;;;;;4974380;28;20039;-75
2022/03/01 01:27:54;;;;;;;11.18;6.93;;;;;;;;;;4957386;28;20050;-72
2022/03/01 01:30:23;;;;;;;10.60;6.60;;;;;;;;;;4975533;28;20070;-73
2022/03/01 01:32:51;;;;;;;9.23;5.93;;;;;;;;;;4975876;28;20054;-73
2022/03/01 01:35:20;;;;;;;7.20;5.43;;;;;;;;;;4975853;28;20053;-71
2022/03/01 01:37:48;;;;;;;7.70;5.22;;;;;;;;;;4975452;28;20081;-69
2022/03/01 01:40:19;;;;;;;5.78;4.78;;;;;;;;;;4975431;28;20038;-70
2022/03/01 01:42:47;;;;;;;6.75;5.10;;;;;;;;;;4974079;28;20557;-71
2022/03/01 01:45:14;;;;;;;6.47;4.40;;;;;;;;;;4975466;28;20039;-69
2022/03/01 01:47:46;;;;;;;5.22;4.50;;;;;;;;;;4974017;28;20046;-72
2022/03/01 01:50:14;;;;;;;7.60;4.13;;;;;;;;;;4975010;28;20054;-73
2022/03/01 01:52:44;;;;;;;7.00;5.00;;;;;;;;;;4975339;28;20061;-69
2022/03/01 01:55:11;;;;;;;6.25;3.95;;;;;;;;;;4975335;28;20516;-74
2022/03/01 01:57:39;;;;;;;7.57;4.32;;;;;;;;;;4974088;28;20109;-72
2022/03/01 02:00:07;;;;;;;9.23;4.65;;;;;;;;;;4957730;28;20469;-73
2022/03/01 02:02:41;;;;;;;9.85;5.22;;;;;;;;;;4975005;28;20035;-73
2022/03/01 02:05:09;;;;;;;9.93;4.65;;;;;;;;;;4973748;28;20043;-69
2022/03/01 02:07:37;;;;;;;9.43;5.10;;;;;;;;;;4975496;28;20055;-75
2022/03/01 02:10:07;;;;;;;8.07;5.50;;;;;;;;;;4975001;28;20060;-71
2022/03/01 02:12:35;;;;;;;7.45;5.40;;;;;;;;;;4973713;28;20043;-71
2022/03/01 02:15:03;;;;;;;7.40;5.35;;;;;;;;;;4974447;28;20126;-70
2022/03/01 02:17:31;;;;;;;13.05;5.90;;;;;;;;;;4974837;28;20199;-69
2022/03/01 02:19:59;;;;;;;11.80;5.53;;;;;;;;;;4974884;28;20113;-75
2022/03/01 02:22:33;;;;;;;10.82;5.47;;;;;;;;;;4974571;28;20051;-69
2022/03/01 02:25:00;;;;;;;6.45;5.13;;;;;;;;;;4974507;28;20045;-73
2022/03/01 02:27:30;;;;;;;11.27;5.90;;;;;;;;;;4974579;28;20042;-69
2022/03/01 02:30:00;;;;;;;10.10;5.70;;;;;;;;;;4974561;28;20046;-75
2022/03/01 02:32:28;;;;;;;11.02;6.55;;;;;;;;;;4973290;28;20050;-69
2022/03/01 02:34:55;;;;;;;9.82;6.20;;;;;;;;;;4974701;28;20047;-69
2022/03/01 02:37:23;;;;;;;9.80;5.65;;;;;;;;;;4974249;28;20039;-69
2022/03/01 02:39:52;;;;;;;7.32;5.55;;;;;;;;;;4973329;28;20046;-69
2022/03/01 02:42:21;;;;;;;10.35;6.40;;;;;;;;;;4974313;28;20127;-75
2022/03/01 02:44:49;;;;;;;8.90;5.65;;;;;;;;;;4973052;28;20039;-69
2022/03/01 02:47:17;;;;;;;8.82;5.57;;;;;;;;;;4957227;28;20054;-69
2022/03/01 02:49:45;;;;;;;10.40;5.65;;;;;;;;;;4973842;28;20047;-75
2022/03/01 02:52:12;;;;;;;8.90;5.35;;;;;;;;;;4974491;28;20041;-69
2022/03/01 02:54:39;;;;;;;9.75;6.05;;;;;;;;;;4974420;28;20031;-75
2022/03/01 02:57:07;;;;;;;7.90;5.57;;;;;;;;;;4972651;28;20050;-72
2022/03/01 02:59:34;;;;;;;11.90;5.68;;;;;;;;;;4974003;28;20117;-72
2022/03/01 03:02:04;;;;;;;12.02;6.63;;;;;;;;;;4974012;28;20074;-69
2022/03/01 03:04:32;;;;;;;10.15;5.82;;;;;;;;;;4974227;28;20065;-73
2022/03/01 03:07:00;;;;;;;10.65;6.10;;;;;;;;;;4972872;28;20039;-72
2022/03/01 03:09:27;;;;;;;8.02;6.00;;;;;;;;;;4973926;28;20043;-70
2022/03/01 03:11:55;;;;;;;10.32;6.68;;;;;;;;;;4972333;28;20110;-73
2022/03/01 03:14:22;;;;;;;13.38;6.63;;;;;;;;;;5004877;28;20053;-69
2022/03/01 03:16:50;;;;;;;14.05;6.63;;;;;;;;;;4973257;28;20054;-71
2022/03/01 03:19:17;;;;;;;7.57;6.13;;;;;;;;;;4974075;28;20043;-75
2022/03/01 03:21:46;;;;;;;10.05;5.93;;;;;;;;;;4973857;28;20082;-72
2022/03/01 03:24:14;;;;;;;9.40;6.18;;;;;;;;;;4973864;28;20374;-69
2022/03/01 03:26:45;;;;;;;9.65;5.95;;;;;;;;;;4972417;28;20039;-71
2022/03/01 03:29:13;;;;;;;9.88;5.97;;;;;;;;;;4972417;28;20413;-75
2022/03/01 03:31:41;;;;;;;8.70;5.95;;;;;;;;;;4972158;28;20047;-75
2022/03/01 03:34:09;;;;;;;8.32;5.60;;;;;;;;;;4973775;28;20039;-73
2022/03/01 03:36:38;;;;;;;10.70;5.68;;;;;;;;;;4973585;28;20054;-71
2022/03/01 03:39:06;;;;;;;12.35;7.47;;;;;;;;;;4973211;28;20043;-69
2022/03/01 03:41:34;;;;;;;14.38;9.40;;;;;;;;;;4972284;28;20478;-73
2022/03/01 03:44:02;;;;;;;14.55;8.55;;;;;;;;;;4973646;28;20447;-69
2022/03/01 03:46:29;;;;;;;11.73;7.72;;;;;;;;;;4972074;28;20049;-70
2022/03/01 03:48:57;;;;;;;10.73;6.75;;;;;;;;;;4972128;28;20081;-73
2022/03/01 03:51:25;;;;;;;7.55;6.25;;;;;;;;;;4973165;28;20049;-71
2022/03/01 03:53:54;;;;;;;9.38;6.63;;;;;;;;;;4972012;28;20049;-70
2022/03/01 03:56:22;;;;;;;8.43;6.20;;;;;;;;;;4974030;28;20065;-75
2022/03/01 03:58:50;;;;;;;10.40;6.65;;;;;;;;;;4972222;28;20093;-75
2022/03/01 04:01:17;;;;;;;9.38;6.15;;;;;;;;;;4973165;28;20102;-69
2022/03/01 04:03:46;;;;;;;9.85;6.20;;;;;;;;;;4972109;28;20069;-73
2022/03/01 04:06:14;;;;;;;10.32;5.97;;;;;;;;;;4973460;28;20054;-73
2022/03/01 04:08:41;;;;;;;9.35;6.60;;;;;;;;;;4972250;28;20058;-75
2022/03/01 04:11:09;;;;;;;9.10;6.47;;;;;;;;;;4973473;28;20521;-70
2022/03/01 04:13:36;;;;;;;11.65;6.45;;;;;;;;;;4973150;28;20043;-75
2022/03/01 04:16:06;;;;;;;10.32;7.20;;;;;;;;;;4972222;28;20065;-73
2022/03/01 04:18:36;;;;;;;12.60;6.30;;;;;;;;;;4973227;28;20558;-69
2022/03/01 04:21:04;;;;;;;9.88;6.10;;;;;;;;;;4973188;28;20043;-75
2022/03/01 04:23:32;;;;;;;9.02;6.15;;;;;;;;;;4972115;28;20086;-75
2022/03/01 04:26:00;;;;;;;9.75;6.20;;;;;;;;;;4975282;28;20043;-73
2022/03/01 04:28:28;;;;;;;8.60;6.18;;;;;;;;;;4975485;28;20368;-75
2022/03/01 04:30:58;;;;;;;11.93;5.93;;;;;;;;;;4977022;28;20130;-74
2022/03/01 04:33:25;;;;;;;10.07;6.30;;;;;;;;;;4976850;28;20043;-72
2022/03/01 04:35:52;;;;;;;13.27;6.85;;;;;;;;;;4976834;28;20051;-73
2022/03/01 04:38:20;;;;;;;9.23;6.60;;;;;;;;;;4976260;28;20123;-70
2022/03/01 04:40:48;;;;;;;12.00;6.78;;;;;;;;;;4977013;28;20118;-70
2022/03/01 04:43:15;;;;;;;12.05;6.97;;;;;;;;;;4976436;28;20564;-70
2022/03/01 04:45:46;;;;;;;9.23;6.60;;;;;;;;;;4976545;28;20393;-73
2022/03/01 04:48:18;;;;;;;11.40;7.13;;;;;;;;;;4976668;28;20454;-75
2022/03/01 04:50:46;;;;;;;8.93;6.65;;;;;;;;;;4958835;28;20146;-70
2022/03/01 04:53:13;;;;;;;9.93;7.30;;;;;;;;;;4976710;28;20121;-69
2022/03/01 04:55:42;;;;;;;11.88;7.38;;;;;;;;;;4975529;28;20133;-75
2022/03/01 04:58:17;;;;;;;11.20;7.70;;;;;;;;;;4976131;28;20062;-73
2022/03/01 05:00:45;;;;;;;11.23;7.00;;;;;;;;;;4976220;28;20401;-69
2022/03/01 05:03:13;;;;;;;9.73;7.15;;;;;;;;;;4975885;28;20486;-69
2022/03/01 05:05:40;;;;;;;12.90;7.50;;;;;;;;;;4974859;28;20430;-75
2022/03/01 05:08:08;;;;;;;11.27;7.55;;;;;;;;;;4975300;28;20053;-73
2022/03/01 05:10:35;;;;;;;11.77;6.47;;;;;;;;;;4976280;28;20125;-74
2022/03/01 05:13:09;;;;;;;13.95;7.03;;;;;;;;;;4975987;28;20106;-69
2022/03/01 05:15:36;;;;;;;12.60;6.70;;;;;;;;;;4958513;28;20573;-75
2022/03/01 05:18:03;;;;;;;11.18;6.93;;;;;;;;;;4974687;28;20058;-69
2022/03/01 05:20:31;;;;;;;10.15;6.80;;;;;;;;;;4979097;28;20517;-75
2022/03/01 05:22:58;;;;;;;10.68;6.55;;;;;;;;;;4977875;28;20058;-72
2022/03/01 05:25:26;;;;;;;8.95;6.18;;;;;;;;;;4993829;28;20045;-75
2022/03/01 05:27:54;;;;;;;9.00;5.93;;;;;;;;;;4993655;28;20494;-75
2022/03/01 05:30:22;;;;;;;7.55;6.00;;;;;;;;;;4995122;28;20170;-70
2022/03/01 05:32:54;;;;;;;7.50;5.65;;;;;;;;;;4993938;28;20054;-73
2022/03/01 05:35:24;;;;;;;8.40;5.80;;;;;;;;;;4993269;28;20038;-69
2022/03/01 05:37:55;;;;;;;12.80;5.90;;;;;;;;;;4994361;28;20121;-70
2022/03/01 05:40:23;;;;;;;8.75;5.88;;;;;;;;;;4994980;28;20042;-69
2022/03/01 05:42:51;;;;;;;6.93;5.55;;;;;;;;;;4993711;28;20057;-69
2022/03/01 05:45:18;;;;;;;9.43;6.20;;;;;;;;;;4993077;28;20046;-73
2022/03/01 05:47:47;;;;;;;12.95;7.00;;;;;;;;;;4993744;28;20042;-69
2022/03/01 05:50:17;;;;;;;13.15;7.85;;;;;;;;;;4994696;28;20049;-74
2022/03/01 05:52:49;;;;;;;14.55;8.75;;;;;;;;;;4994802;28;20046;-70
2022/03/01 05:55:16;;;;;;;11.95;8.85;;;;;;;;;;4993768;28;20038;-69
2022/03/01 05:57:44;;;;;;;18.25;9.30;;;;;;;;;;4995115;28;20038;-73
2022/03/01 06:00:16;;;;;;;17.45;8.60;;;;;;;;;;4994382;28;20049;-70
2022/03/01 06:02:45;;;;;;;12.03;8.30;;;;;;;;;;4993031;28;20065;-75
2022/03/01 06:05:15;;;;;;;13.45;7.75;;;;;;;;;;4994709;28;20284;-71
2022/03/01 06:07:43;;;;;;;12.40;7.07;;;;;;;;;;4994798;28;20125;-73
2022/03/01 06:10:11;;;;;;;11.63;6.35;;;;;;;;;;4994706;28;20046;-75
2022/03/01 06:12:39;;;;;;;12.52;6.53;;;;;;;;;;4992617;28;20140;-71
2022/03/01 06:15:07;;;;;;;9.15;6.13;;;;;;;;;;4994266;28;20046;-73
2022/03/01 06:17:34;;;;;;;7.88;6.00;;;;;;;;;;4976839;28;20062;-73
2022/03/01 06:20:02;;;;;;;12.50;5.72;;;;;;;;;;4993771;28;20064;-69
2022/03/01 06:22:30;;;;;;;7.78;6.35;;;;;;;;;;4992605;28;20133;-69
2022/03/01 06:24:57;;;;;;;10.10;6.20;;;;;;;;;;4991316;28;20110;-71
2022/03/01 06:27:27;;;;;;;7.68;5.68;;;;;;;;;;4966712;28;20372;-75
2022/03/01 06:29:55;;;;;;;14.43;5.85;;;;;;;;;;4991323;28;20493;-71
2022/03/01 06:32:23;;;;;;;8.05;5.70;;;;;;;;;;4992419;28;20065;-73
2022/03/01 06:34:51;;;;;;;13.40;5.60;;;;;;;;;;4991036;28;20056;-70
2022/03/01 06:37:38;;;;;;;9.00;4.95;;;;;;;;;;4992239;28;20051;-73
2022/03/01 06:40:08;;;;;;;7.28;5.00;;;;;;;;;;4992993;28;20043;-69
2022/03/01 06:42:36;;;;;;;8.05;5.20;;;;;;;;;;4979407;28;20434;-71
2022/03/01 06:45:04;;;;;;;13.52;6.05;;;;;;;;;;4972860;28;20156;-69
2022/03/01 06:47:31;;;;;;;11.65;7.18;;;;;;;;;;4978368;28;20026;-75
2022/03/01 06:50:00;;;;;;;9.48;5.50;;;;;;;;;;4981244;28;20129;-73
2022/03/01 06:52:28;;;;;;;5.97;4.50;;;;;;;;;;4982842;28;20076;-71
2022/03/01 06:54:59;;;;;;;5.25;4.10;;;;;;;;;;4966920;28;20089;-70
2022/03/01 06:57:26;;;;;;;12.07;6.85;;;;;;;;;;4959722;28;20134;-74
2022/03/01 06:59:56;;;;;;;4.20;3.50;;;;;;;;;;4972324;28;20039;-73
2022/03/01 07:02:26;;;;;;;7.57;4.03;;;;;;;;;;4971417;28;20047;-72
2022/03/01 07:04:54;;;;;;;4.68;3.22;;;;;;;;;;4973899;28;20039;-73
2022/03/01 07:07:22;;;;;;;3.63;2.88;;;;;;;;;;4973647;28;20122;-70
2022/03/01 07:09:50;;;;;;;3.95;2.58;;;;;;;;;;4973548;28;20093;-73
2022/03/01 07:12:22;;;;;;;3.67;2.60;;;;;;;;;;4973078;28;20050;-68
2022/03/01 07:14:50;;;;;;;3.50;2.67;;;;;;;;;;4973472;28;20073;-71
2022/03/01 07:17:17;;;;;;;3.40;2.78;;;;;;;;;;4973556;28;20117;-69
2022/03/01 07:19:46;;;;;;;5.45;3.00;;;;;;;;;;4972254;28;20049;-69
2022/03/01 07:22:14;;;;;;;6.00;2.83;;;;;;;;;;5084687;23;20132;-69
2022/03/01 07:24:41;;;;;;;4.30;2.95;;;;;;;;;;5012735;28;20107;-70
2022/03/01 07:27:10;;;;;;;4.70;2.65;;;;;;;;;;5012413;28;20377;-70
2022/03/01 07:29:37;;;;;;;3.72;2.80;;;;;;;;;;5012854;28;20467;-70
2022/03/01 07:32:05;;;;;;;4.03;2.92;;;;;;;;;;5011626;28;20069;-69
2022/03/01 07:34:34;;;;;;;2.88;2.60;;;;;;;;;;5013454;28;20135;-69
2022/03/01 07:37:02;;;;;;;3.90;2.67;;;;;;;;;;5012082;28;20460;-69
2022/03/01 07:39:29;;;;;;;4.10;2.50;;;;;;;;;;5012362;28;20045;-69
2022/03/01 07:41:57;;;;;;;3.80;2.30;;;;;;;;;;5012196;28;20052;-69
2022/03/01 07:44:24;;;;;;;2.50;2.30;;;;;;;;;;5012386;28;20034;-70
2022/03/01 07:46:54;;;;;;;3.85;2.63;;;;;;;;;;5012522;28;20496;-69
2022/03/01 07:49:22;;;;;;;6.03;2.80;;;;;;;;;;5012688;28;20096;-70
2022/03/01 07:51:52;;;;;;;2.67;2.47;;;;;;;;;;5012329;28;20604;-70
2022/03/01 07:54:21;;;;;;;3.45;2.88;;;;;;;;;;5009904;28;20126;-70
2022/03/01 07:56:51;;;;;;;6.10;2.63;;;;;;;;;;5012327;28;20121;-70
2022/03/01 07:59:18;;;;;;;7.55;3.03;;;;;;;;;;5014449;28;20034;-69
2022/03/01 08:01:46;;;;;;;5.22;2.60;;;;;;;;;;5015759;28;20411;-70
2022/03/01 08:04:14;;;;;;;4.25;2.95;;;;;;;;;;5014298;28;20465;-68
2022/03/01 08:06:43;;;;;;;5.43;2.28;;;;;;;;;;5016076;28;20057;-69
2022/03/01 08:09:10;;;;;;;6.25;2.60;;;;;;;;;;5015934;28;20073;-68
2022/03/01 08:11:39;;;;;;;3.17;2.60;;;;;;;;;;5015662;28;20130;-70
2022/03/01 08:14:08;;;;;;;4.45;2.60;;;;;;;;;;5015505;28;20064;-69
2022/03/01 08:16:37;;;;;;;2.70;2.38;;;;;;;;;;5015922;28;20045;-70
2022/03/01 08:19:04;;;;;;;4.30;2.70;;;;;;;;;;5015389;28;20179;-68
2022/03/01 08:21:32;;;;;;;4.38;2.90;;;;;;;;;;5013380;28;20382;-69
2022/03/01 08:23:59;;;;;;;3.13;2.58;;;;;;;;;;5014920;28;20049;-69
2022/03/01 08:26:27;;;;;;;3.92;2.92;;;;;;;;;;5014421;28;20038;-69
2022/03/01 08:28:56;;;;;;;3.20;2.63;;;;;;;;;;5015773;28;20042;-69
2022/03/01 08:31:24;;;;;;;5.85;3.50;;;;;;;;;;5015597;28;20041;-68
2022/03/01 08:33:53;;;;;;;5.00;3.60;;;;;;;;;;5015358;28;20038;-69
2022/03/01 08:36:22;;;;;;;4.63;3.30;;;;;;;;;;5013314;28;20480;-69
2022/03/01 08:38:50;;;;;;;5.35;3.50;;;;;;;;;;5015237;28;20057;-68
2022/03/01 08:41:18;;;;;;;7.72;3.80;;;;;;;;;;5014710;28;20495;-69
2022/03/01 08:43:49;;;;;;;4.45;3.58;;;;;;;;;;5016101;28;20073;-69
2022/03/01 08:46:23;;;;;;;4.53;3.60;;;;;;;;;;5016012;28;20121;-69
2022/03/01 08:48:53;;;;;;;7.30;3.92;;;;;;;;;;5015767;28;20121;-69
2022/03/01 08:51:21;;;;;;;10.05;4.03;;;;;;;;;;5015715;28;20038;-68
2022/03/01 08:53:54;;;;;;;4.68;4.03;;;;;;;;;;5031038;28;20076;-69
2022/03/01 08:56:21;;;;;;;9.27;4.70;;;;;;;;;;5015853;28;20052;-69
2022/03/01 08:58:49;;;;;;;7.68;4.47;;;;;;;;;;5015095;28;20046;-69
2022/03/01 09:01:16;;;;;;;10.10;5.68;;;;;;;;;;5014758;28;20038;-69
2022/03/01 09:03:46;;;;;;;6.80;4.32;;;;;;;;;;5012169;28;20069;-69
2022/03/01 09:06:14;;;;;;;5.75;4.55;;;;;;;;;;5015469;28;20045;-70
2022/03/01 09:08:43;;;;;;;9.15;5.00;;;;;;;;;;5015626;28;20049;-70
2022/03/01 09:11:13;;;;;;;7.60;5.05;;;;;;;;;;5014250;28;20188;-70
2022/03/01 09:13:47;;;;;;;8.93;4.75;;;;;;;;;;5014578;28;20046;-69
2022/03/01 09:16:15;;;;;;;8.05;4.80;;;;;;;;;;5014648;28;20046;-70
2022/03/01 09:18:44;;;;;;;8.43;4.47;;;;;;;;;;5014493;28;20050;-69
2022/03/01 09:21:11;;;;;;;7.22;5.00;;;;;;;;;;5013962;28;20041;-70
2022/03/01 09:23:40;;;;;;;5.57;4.55;;;;;;;;;;5014755;28;20065;-70
2022/03/01 09:26:08;;;;;;;6.80;4.85;;;;;;;;;;5014168;28;20052;-69
2022/03/01 09:28:36;;;;;;;4.75;4.30;;;;;;;;;;5014283;28;20038;-69
2022/03/01 09:31:04;;;;;;;7.03;4.43;;;;;;;;;;5013898;28;20046;-69
2022/03/01 09:33:32;;;;;;;7.65;4.57;;;;;;;;;;5012552;28;20041;-69
2022/03/01 09:36:01;;;;;;;7.03;4.32;;;;;;;;;;5015275;28;20049;-70
2022/03/01 09:38:30;;;;;;;7.82;4.90;;;;;;;;;;5029833;28;20038;-69
2022/03/01 09:40:57;;;;;;;6.50;5.10;;;;;;;;;;5014530;28;20507;-70
2022/03/01 09:43:25;;;;;;;6.03;4.57;;;;;;;;;;5014280;28;20116;-69
2022/03/01 09:45:55;;;;;;;8.98;5.00;;;;;;;;;;5014617;28;20045;-69
2022/03/01 09:48:25;;;;;;;6.00;5.10;;;;;;;;;;5013891;28;20492;-70
2022/03/01 09:50:55;;;;;;;9.35;5.53;;;;;;;;;;5013912;28;20041;-69
2022/03/01 09:53:22;;;;;;;7.53;5.47;;;;;;;;;;5012885;28;20064;-70
2022/03/01 09:55:52;;;;;;;12.43;5.43;;;;;;;;;;5013878;28;20563;-70
2022/03/01 09:58:20;;;;;;;11.95;5.07;;;;;;;;;;5014005;28;20058;-69
2022/03/01 10:00:47;;;;;;;7.82;5.68;;;;;;;;;;5014089;28;20046;-70
2022/03/01 10:03:20;;;;;;;8.88;5.85;;;;;;;;;;5012796;28;20046;-69
2022/03/01 10:05:48;;;;;;;8.07;5.13;;;;;;;;;;5014271;28;20073;-69
2022/03/01 10:08:21;;;;;;;6.13;4.40;;;;;;;;;;5014207;28;20048;-70
2022/03/01 10:10:51;;;;;;;8.13;4.38;;;;;;;;;;5014452;28;20072;-69
2022/03/01 10:13:23;;;;;;;6.97;4.43;;;;;;;;;;5013613;28;20041;-69
2022/03/01 10:15:52;;;;;;;6.25;3.90;;;;;;;;;;5011300;28;20045;-69
2022/03/01 10:18:21;;;;;;;4.00;3.00;;;;;;;;;;5013418;28;20050;-69
2022/03/01 10:21:00;;;;;;;4.20;2.35;;;;;;;;;;5013106;28;20485;-70
2022/03/01 10:23:28;;;;;;;6.53;2.40;;;;;;;;;;5013419;28;20060;-70
2022/03/01 10:25:56;;;;;;;2.85;2.30;;;;;;;;;;5013761;28;20041;-70
2022/03/01 10:28:33;;;;;;;4.65;2.72;;;;;;;;;;5012984;28;20069;-70
2022/03/01 10:31:09;;;;;;;4.45;2.17;;;;;;;;;;5012203;28;20048;-69
2022/03/01 10:33:39;;;;;;;6.43;3.22;;;;;;;;;;5012453;28;20050;-70
2022/03/01 10:36:06;;;;;;;3.28;2.33;;;;;;;;;;5013423;28;20125;-70
2022/03/01 10:38:38;;;;;;;4.28;3.10;;;;;;;;;;5013549;28;20046;-70
2022/03/01 10:41:09;;;;;;;7.85;2.90;;;;;;;;;;5012505;28;20038;-69
2022/03/01 10:43:37;;;;;;;3.65;2.40;;;;;;;;;;5013061;28;20042;-69
2022/03/01 10:46:07;;;;;;;4.93;2.50;;;;;;;;;;5013121;28;20048;-71
2022/03/01 10:48:35;;;;;;;3.67;2.53;;;;;;;;;;5013008;28;20030;-71
2022/03/01 10:51:02;;;;;;;5.93;2.42;;;;;;;;;;5028166;28;20117;-71
2022/03/01 10:53:36;;;;;;;2.97;2.67;;;;;;;;;;5011636;28;20128;-70
2022/03/01 10:56:06;;;;;;;3.13;2.50;;;;;;;;;;5010890;28;20042;-72
2022/03/01 10:58:38;;;;;;;2.20;1.90;;;;;;;;;;5012903;28;20041;-71
2022/03/01 11:01:06;;;;;;;6.97;2.70;;;;;;;;;;5013128;28;20052;-71
2022/03/01 11:03:34;;;;;;;2.83;2.38;;;;;;;;;;5013199;28;20491;-71
2022/03/01 11:06:02;;;;;;;2.65;2.17;;;;;;;;;;5013465;28;20451;-70
2022/03/01 11:08:36;;;;;;;2.95;2.50;;;;;;;;;;5013199;28;20042;-71
2022/03/01 11:11:05;;;;;;;2.75;2.50;;;;;;;;;;5012790;28;20062;-71
2022/03/01 11:13:54;;;;;;;10.13;2.30;;;;;;;;;;5013007;28;20092;-72
2022/03/01 11:16:40;;;;;;;2.50;2.22;;;;;;;;;;5012841;28;20132;-71
2022/03/01 11:19:27;;;;;;;3.60;2.38;;;;;;;;;;5013277;28;20459;-70
2022/03/01 11:21:57;;;;;;;5.60;3.28;;;;;;;;;;5012982;28;20096;-72
2022/03/01 11:24:26;;;;;;;3.38;2.80;;;;;;;;;;5012476;28;20419;-71
2022/03/01 11:27:03;;;;;;;3.85;2.60;;;;;;;;;;5012756;28;20057;-71
2022/03/01 11:29:40;;;;;;;4.80;3.10;;;;;;;;;;5012746;28;20084;-71
2022/03/01 11:32:15;;;;;;;4.95;3.15;;;;;;;;;;5012786;28;20050;-71
2022/03/01 11:34:45;;;;;;;4.45;3.40;;;;;;;;;;5012842;28;20073;-71
2022/03/01 11:37:17;;;;;;;4.40;3.20;;;;;;;;;;5012884;28;20038;-71
2022/03/01 11:39:54;;;;;;;4.32;2.70;;;;;;;;;;5012801;28;20052;-71
2022/03/01 11:42:22;;;;;;;3.45;2.65;;;;;;;;;;5012967;28;20071;-71
2022/03/01 11:44:52;;;;;;;3.20;2.50;;;;;;;;;;5012982;28;20111;-71
2022/03/01 11:47:32;;;;;;;5.40;2.55;;;;;;;;;;5013066;28;20408;-71
2022/03/01 11:50:18;;;;;;;3.55;2.40;;;;;;;;;;5011826;28;20500;-70
2022/03/01 11:53:05;;;;;;;3.95;2.53;;;;;;;;;;5012656;28;20046;-71
2022/03/01 11:55:43;;;;;;;4.47;2.60;;;;;;;;;;5012135;28;20054;-70
2022/03/01 11:58:12;;;;;;;4.53;2.60;;;;;;;;;;5012643;28;20134;-70
2022/03/01 12:00:43;;;;;;;2.50;2.30;;;;;;;;;;5012242;28;20108;-71
2022/03/01 12:03:15;;;;;;;3.15;2.42;;;;;;;;;;5012186;28;20030;-71
2022/03/01 12:05:45;;;;;;;4.53;2.20;;;;;;;;;;5012732;28;20071;-69
2022/03/01 12:08:13;;;;;;;4.80;2.33;;;;;;;;;;5012039;28;20046;-70
2022/03/01 12:10:56;;;;;;;3.92;2.50;;;;;;;;;;5012407;28;20225;-71
2022/03/01 12:13:35;;;;;;;5.10;2.60;;;;;;;;;;5012501;28;20054;-71
2022/03/01 12:16:04;;;;;;;4.22;2.53;;;;;;;;;;5008241;28;20045;-70
2022/03/01 12:18:35;;;;;;;5.38;2.75;;;;;;;;;;5008659;28;20497;-71
2022/03/01 12:21:06;;;;;;;4.47;2.45;;;;;;;;;;5012319;28;20136;-69
2022/03/01 12:23:38;;;;;;;3.33;2.50;;;;;;;;;;5012172;28;20053;-71
2022/03/01 12:26:08;;;;;;;3.40;3.10;;;;;;;;;;5012233;28;20089;-71
2022/03/01 12:28:46;;;;;;;8.70;5.20;;;;;;;;;;5011602;28;20042;-72
2022/03/01 12:31:15;;;;;;;6.30;4.32;;;;;;;;;;5025807;28;20042;-71
2022/03/01 12:33:51;;;;;;;6.22;4.40;;;;;;;;;;5012427;28;20400;-71
2022/03/01 12:36:26;;;;;;;5.85;4.22;;;;;;;;;;5012701;28;20089;-71
2022/03/01 12:38:57;;;;;;;6.68;4.57;;;;;;;;;;5011925;28;20069;-72
2022/03/01 12:41:25;;;;;;;7.32;4.68;;;;;;;;;;5012415;28;20042;-71
2022/03/01 12:43:57;;;;;;;6.60;4.55;;;;;;;;;;5012044;28;20060;-70
2022/03/01 12:46:28;;;;;;;5.82;4.35;;;;;;;;;;5015876;28;20445;-71
2022/03/01 12:48:56;;;;;;;8.07;4.35;;;;;;;;;;5015896;28;20180;-71
2022/03/01 12:51:25;;;;;;;9.10;4.43;;;;;;;;;;5010444;28;20050;-71
2022/03/01 12:54:00;;;;;;;10.65;5.05;;;;;;;;;;5007702;28;20046;-69
2022/03/01 12:56:30;;;;;;;7.85;4.95;;;;;;;;;;5004667;28;20046;-71
2022/03/01 12:59:08;;;;;;;6.28;4.75;;;;;;;;;;5007326;28;20380;-70
2022/03/01 13:01:39;;;;;;;8.27;5.40;;;;;;;;;;5002740;28;20042;-71
2022/03/01 13:04:07;;;;;;;9.70;5.88;;;;;;;;;;4995799;28;20097;-71
2022/03/01 13:06:35;;;;;;;8.63;4.90;;;;;;;;;;5007405;28;20048;-70
2022/03/01 13:09:04;;;;;;;5.53;4.15;;;;;;;;;;5009455;28;20041;-71
2022/03/01 13:11:32;;;;;;;5.57;3.60;;;;;;;;;;5005063;28;20400;-71
2022/03/01 13:14:03;;;;;;;3.67;2.95;;;;;;;;;;5004799;28;20049;-71
2022/03/01 13:16:33;;;;;;;5.28;3.15;;;;;;;;;;5000223;28;20046;-71
2022/03/01 13:19:03;;;;;;;5.05;3.60;;;;;;;;;;5006785;28;20493;-71
2022/03/01 13:21:32;;;;;;;5.75;3.78;;;;;;;;;;5007150;28;20069;-71
2022/03/01 13:24:00;;;;;;;6.97;4.22;;;;;;;;;;5004408;28;20042;-71
2022/03/01 13:26:30;;;;;;;4.95;4.28;;;;;;;;;;5012939;28;20069;-71
2022/03/01 13:29:11;;;;;;;5.18;4.15;;;;;;;;;;5000074;28;20081;-71
2022/03/01 13:31:40;;;;;;;6.63;4.18;;;;;;;;;;5004266;28;20218;-71
2022/03/01 13:34:11;;;;;;;5.55;4.57;;;;;;;;;;5013871;28;20033;-71
2022/03/01 13:36:40;;;;;;;6.43;4.57;;;;;;;;;;5013276;28;20067;-71
2022/03/01 13:39:11;;;;;;;9.40;4.32;;;;;;;;;;5002470;28;20042;-71
2022/03/01 13:41:41;;;;;;;7.90;3.78;;;;;;;;;;4994476;28;20479;-72
2022/03/01 13:44:28;;;;;;;4.75;4.00;;;;;;;;;;4994097;28;20049;-72
2022/03/01 13:46:56;;;;;;;4.53;3.22;;;;;;;;;;4994422;28;20057;-72
2022/03/01 13:49:34;;;;;;;3.75;2.90;;;;;;;;;;5009254;28;20062;-71
2022/03/01 13:52:07;;;;;;;3.40;2.83;;;;;;;;;;4993168;28;20048;-72
2022/03/01 13:54:36;;;;;;;4.40;2.95;;;;;;;;;;4996915;28;20049;-71
2022/03/01 13:57:04;;;;;;;4.70;3.00;;;;;;;;;;4993920;28;20069;-72
2022/03/01 13:59:32;;;;;;;3.95;3.00;;;;;;;;;;4994422;28;20050;-70
2022/03/01 14:02:06;;;;;;;3.13;2.90;;;;;;;;;;4993998;28;20038;-72
2022/03/01 14:04:34;;;;;;;4.90;2.50;;;;;;;;;;4993979;28;20034;-70
2022/03/01 14:07:01;;;;;;;2.15;1.90;;;;;;;;;;4994224;28;20042;-71
2022/03/01 14:09:29;;;;;;;2.20;2.00;;;;;;;;;;4994260;28;20046;-71
2022/03/01 14:12:05;;;;;;;2.40;2.20;;;;;;;;;;4994189;28;20097;-71
2022/03/01 14:14:43;;;;;;;4.05;2.40;;;;;;;;;;4993859;28;20104;-71
2022/03/01 14:17:21;;;;;;;4.47;3.00;;;;;;;;;;5008872;28;20096;-71
2022/03/01 14:19:53;;;;;;;4.60;2.88;;;;;;;;;;4996356;28;20113;-70
2022/03/01 14:22:23;;;;;;;2.90;2.60;;;;;;;;;;4993504;28;20124;-70
2022/03/01 14:24:55;;;;;;;4.38;2.97;;;;;;;;;;5008843;28;20494;-71
2022/03/01 14:27:23;;;;;;;5.50;2.70;;;;;;;;;;4993512;28;20040;-71
2022/03/01 14:29:50;;;;;;;4.80;3.50;;;;;;;;;;4993542;28;20050;-70
2022/03/01 14:32:18;;;;;;;7.53;3.60;;;;;;;;;;5012121;28;20050;-71
2022/03/01 14:34:48;;;;;;;4.03;3.45;;;;;;;;;;5007360;28;20121;-72
2022/03/01 14:37:16;;;;;;;5.53;4.28;;;;;;;;;;4993390;28;20042;-71
2022/03/01 14:39:45;;;;;;;5.22;4.20;;;;;;;;;;4995608;28;20125;-71
2022/03/01 14:42:14;;;;;;;6.07;3.80;;;;;;;;;;4993205;28;20035;-73
2022/03/01 14:44:42;;;;;;;3.90;3.50;;;;;;;;;;4993066;28;20137;-72
2022/03/01 14:47:09;;;;;;;3.00;2.70;;;;;;;;;;4996069;28;20085;-71
2022/03/01 14:49:39;;;;;;;3.50;2.45;;;;;;;;;;4992930;28;20038;-72
2022/03/01 14:52:12;;;;;;;3.95;2.90;;;;;;;;;;4992879;28;20046;-70
2022/03/01 14:54:40;;;;;;;4.60;2.58;;;;;;;;;;4993682;28;20062;-69